Aviation Digital Data Service (ADDS)

Output produced by METARs form (1716 UTC 24 February 2017)
found at http://aviationweather.gov/adds/metars/
 
KBHB 241141Z 2412/2512 00000KT P6SM BKN250 
     TEMPO 2412/2414 3SM BR SCT015 
     FM241600 18004KT P6SM OVC015 
     FM241900 17004KT P6SM OVC010 
     FM242300 20004KT 6SM BR OVC007 
     FM250300 VRB03KT 3SM -RA BR OVC003 WS020/23035KT 
     FM250700 VRB03KT 2SM BR OVC006